sensor_id;sensor_type;location;lat;lon;timestamp;pressure;altitude;pressure_sealevel;temperature;humidity
58875;BME280;44652;49.040;12.126;2024-02-21T06:02:04;98180.91;;;4.39;100.00
58875;BME280;44652;49.040;12.126;2024-02-21T06:04:31;98153.00;;;4.23;100.00
58875;BME280;44652;49.040;12.126;2024-02-21T06:06:58;98160.94;;;4.39;100.00
58875;BME280;44652;49.040;12.126;2024-02-21T06:09:24;98158.50;;;4.28;100.00
58875;BME280;44652;49.040;12.126;2024-02-21T06:11:51;98160.84;;;4.23;100.00
58875;BME280;44652;49.040;12.126;2024-02-21T06:14:19;98158.69;;;4.31;100.00
58875;BME280;44652;49.040;12.126;2024-02-21T06:16:46;98162.28;;;4.33;100.00
58875;BME280;44652;49.040;12.126;2024-02-21T06:19:12;98167.06;;;4.25;100.00
58875;BME280;44652;49.040;12.126;2024-02-21T06:21:39;98154.34;;;4.17;100.00
58875;BME280;44652;49.040;12.126;2024-02-21T06:24:06;98166.25;;;4.26;100.00
58875;BME280;44652;49.040;12.126;2024-02-21T06:26:33;98157.25;;;4.21;100.00
58875;BME280;44652;49.040;12.126;2024-02-21T06:29:00;98168.84;;;4.41;100.00
58875;BME280;44652;49.040;12.126;2024-02-21T06:31:28;98179.09;;;4.38;100.00
58875;BME280;44652;49.040;12.126;2024-02-21T06:33:55;98170.19;;;4.34;100.00
58875;BME280;44652;49.040;12.126;2024-02-21T06:36:22;98174.25;;;4.44;100.00
58875;BME280;44652;49.040;12.126;2024-02-21T06:38:52;98180.00;;;4.53;100.00
58875;BME280;44652;49.040;12.126;2024-02-21T06:41:19;98154.81;;;4.39;100.00
58875;BME280;44652;49.040;12.126;2024-02-21T06:43:46;98192.09;;;4.66;100.00
58875;BME280;44652;49.040;12.126;2024-02-21T06:46:24;98191.44;;;4.70;100.00
58875;BME280;44652;49.040;12.126;2024-02-21T06:48:51;98178.75;;;4.61;100.00
58875;BME280;44652;49.040;12.126;2024-02-21T06:51:18;98167.78;;;4.52;100.00
58875;BME280;44652;49.040;12.126;2024-02-21T06:53:45;98191.97;;;4.50;100.00
58875;BME280;44652;49.040;12.126;2024-02-21T06:56:12;98214.19;;;4.73;100.00
58875;BME280;44652;49.040;12.126;2024-02-21T06:58:39;98191.78;;;4.61;100.00
58875;BME280;44652;49.040;12.126;2024-02-21T07:01:07;98196.94;;;4.75;100.00
58875;BME280;44652;49.040;12.126;2024-02-21T07:03:34;98201.78;;;4.83;100.00
58875;BME280;44652;49.040;12.126;2024-02-21T07:06:00;98186.13;;;4.69;100.00
58875;BME280;44652;49.040;12.126;2024-02-21T07:08:28;98170.84;;;4.60;100.00
58875;BME280;44652;49.040;12.126;2024-02-21T07:10:55;98188.41;;;4.62;100.00
58875;BME280;44652;49.040;12.126;2024-02-21T07:13:21;98164.97;;;4.49;100.00
58875;BME280;44652;49.040;12.126;2024-02-21T07:15:49;98186.88;;;4.66;100.00
58875;BME280;44652;49.040;12.126;2024-02-21T07:18:16;98190.81;;;4.59;100.00
58875;BME280;44652;49.040;12.126;2024-02-21T07:20:46;98193.69;;;4.64;100.00
58875;BME280;44652;49.040;12.126;2024-02-21T07:23:13;98183.31;;;4.66;100.00
58875;BME280;44652;49.040;12.126;2024-02-21T07:25:40;98181.91;;;4.71;100.00
58875;BME280;44652;49.040;12.126;2024-02-21T07:28:07;98214.13;;;4.86;100.00
58875;BME280;44652;49.040;12.126;2024-02-21T07:30:33;98196.56;;;4.69;100.00
58875;BME280;44652;49.040;12.126;2024-02-21T07:33:00;98180.63;;;4.79;100.00
58875;BME280;44652;49.040;12.126;2024-02-21T07:35:27;98193.13;;;4.84;100.00
58875;BME280;44652;49.040;12.126;2024-02-21T07:37:54;98203.19;;;5.08;100.00
58875;BME280;44652;49.040;12.126;2024-02-21T07:40:21;98194.50;;;4.93;100.00
58875;BME280;44652;49.040;12.126;2024-02-21T07:42:48;98198.91;;;4.94;100.00
58875;BME280;44652;49.040;12.126;2024-02-21T07:45:17;98197.63;;;4.87;100.00
58875;BME280;44652;49.040;12.126;2024-02-21T07:47:50;98192.13;;;4.97;100.00
58875;BME280;44652;49.040;12.126;2024-02-21T07:50:17;98194.34;;;5.06;100.00
58875;BME280;44652;49.040;12.126;2024-02-21T07:52:44;98162.06;;;4.89;100.00
58875;BME280;44652;49.040;12.126;2024-02-21T07:55:11;98172.03;;;4.96;100.00
58875;BME280;44652;49.040;12.126;2024-02-21T07:57:38;98166.44;;;5.05;100.00
58875;BME280;44652;49.040;12.126;2024-02-21T08:00:05;98171.84;;;5.08;100.00
58875;BME280;44652;49.040;12.126;2024-02-21T08:02:40;98164.59;;;5.19;100.00
58875;BME280;44652;49.040;12.126;2024-02-21T08:05:09;98133.56;;;5.08;100.00
58875;BME280;44652;49.040;12.126;2024-02-21T08:07:36;98149.34;;;5.26;100.00
58875;BME280;44652;49.040;12.126;2024-02-21T08:10:03;98116.72;;;5.03;100.00
58875;BME280;44652;49.040;12.126;2024-02-21T08:12:29;98101.03;;;5.03;100.00
58875;BME280;44652;49.040;12.126;2024-02-21T08:14:56;98115.75;;;5.18;100.00
58875;BME280;44652;49.040;12.126;2024-02-21T08:17:23;98106.31;;;5.20;100.00
58875;BME280;44652;49.040;12.126;2024-02-21T08:19:49;98125.28;;;5.32;100.00
58875;BME280;44652;49.040;12.126;2024-02-21T08:22:16;98104.44;;;5.33;100.00
58875;BME280;44652;49.040;12.126;2024-02-21T08:24:43;98118.72;;;5.24;100.00
58875;BME280;44652;49.040;12.126;2024-02-21T08:27:10;98119.22;;;5.33;100.00
58875;BME280;44652;49.040;12.126;2024-02-21T08:29:37;98137.38;;;5.46;100.00
58875;BME280;44652;49.040;12.126;2024-02-21T08:34:52;98131.91;;;5.58;100.00
58875;BME280;44652;49.040;12.126;2024-02-21T08:37:19;98136.50;;;5.62;100.00
58875;BME280;44652;49.040;12.126;2024-02-21T08:39:47;98129.53;;;5.63;100.00
58875;BME280;44652;49.040;12.126;2024-02-21T08:42:14;98116.06;;;5.55;100.00
58875;BME280;44652;49.040;12.126;2024-02-21T08:44:41;98125.53;;;5.69;100.00
58875;BME280;44652;49.040;12.126;2024-02-21T08:47:09;98130.13;;;5.73;100.00
58875;BME280;44652;49.040;12.126;2024-02-21T08:49:37;98120.88;;;5.80;100.00
58875;BME280;44652;49.040;12.126;2024-02-21T08:52:06;98121.78;;;5.97;100.00
58875;BME280;44652;49.040;12.126;2024-02-21T08:54:33;98122.53;;;6.11;99.46
58875;BME280;44652;49.040;12.126;2024-02-21T08:57:00;98113.63;;;6.25;98.50
58875;BME280;44652;49.040;12.126;2024-02-21T08:59:27;98115.13;;;6.20;96.79
58875;BME280;44652;49.040;12.126;2024-02-21T09:01:54;98110.13;;;6.24;96.79
58875;BME280;44652;49.040;12.126;2024-02-21T09:04:21;98116.38;;;6.44;96.44
58875;BME280;44652;49.040;12.126;2024-02-21T09:06:48;98115.44;;;6.60;94.29
58875;BME280;44652;49.040;12.126;2024-02-21T09:09:14;98105.31;;;6.50;94.08
58875;BME280;44652;49.040;12.126;2024-02-21T09:11:41;98090.34;;;6.47;94.41
58875;BME280;44652;49.040;12.126;2024-02-21T09:14:08;98100.75;;;6.46;93.46
58875;BME280;44652;49.040;12.126;2024-02-21T09:16:35;98086.41;;;6.55;93.71
58875;BME280;44652;49.040;12.126;2024-02-21T09:19:02;98088.63;;;6.66;93.01
58875;BME280;44652;49.040;12.126;2024-02-21T09:21:28;98085.84;;;6.63;92.96
58875;BME280;44652;49.040;12.126;2024-02-21T09:23:55;98091.47;;;6.70;92.91
58875;BME280;44652;49.040;12.126;2024-02-21T09:26:26;98070.97;;;6.79;92.77
58875;BME280;44652;49.040;12.126;2024-02-21T09:28:53;98077.50;;;7.07;89.05
58875;BME280;44652;49.040;12.126;2024-02-21T09:31:20;98085.94;;;7.19;88.57
58875;BME280;44652;49.040;12.126;2024-02-21T09:33:47;98090.97;;;7.15;89.78
58875;BME280;44652;49.040;12.126;2024-02-21T09:36:14;98065.72;;;6.97;90.60
58875;BME280;44652;49.040;12.126;2024-02-21T09:38:41;98087.41;;;7.13;90.67
58875;BME280;44652;49.040;12.126;2024-02-21T09:41:19;98069.66;;;7.07;89.81
58875;BME280;44652;49.040;12.126;2024-02-21T09:43:52;98069.88;;;7.31;87.39
58875;BME280;44652;49.040;12.126;2024-02-21T09:46:29;98064.69;;;7.50;87.95
58875;BME280;44652;49.040;12.126;2024-02-21T09:49:35;98051.97;;;7.40;87.02
58875;BME280;44652;49.040;12.126;2024-02-21T09:52:07;98057.97;;;7.57;86.61
58875;BME280;44652;49.040;12.126;2024-02-21T09:54:34;98048.91;;;7.89;82.61
58875;BME280;44652;49.040;12.126;2024-02-21T09:57:04;98037.25;;;7.83;83.83
58875;BME280;44652;49.040;12.126;2024-02-21T09:59:33;98051.88;;;7.97;82.95
58875;BME280;44652;49.040;12.126;2024-02-21T10:02:00;98028.09;;;7.94;82.72
58875;BME280;44652;49.040;12.126;2024-02-21T10:04:27;98039.06;;;8.04;81.67
58875;BME280;44652;49.040;12.126;2024-02-21T10:06:54;98031.78;;;8.18;81.99
58875;BME280;44652;49.040;12.126;2024-02-21T10:09:23;98039.72;;;8.20;80.08
58875;BME280;44652;49.040;12.126;2024-02-21T10:11:50;98021.53;;;8.24;80.62
58875;BME280;44652;49.040;12.126;2024-02-21T10:14:18;98026.56;;;8.39;80.43
58875;BME280;44652;49.040;12.126;2024-02-21T10:16:55;98017.13;;;8.44;79.52
58875;BME280;44652;49.040;12.126;2024-02-21T10:19:22;98020.31;;;8.58;78.37
58875;BME280;44652;49.040;12.126;2024-02-21T10:22:02;98036.22;;;8.61;78.10
58875;BME280;44652;49.040;12.126;2024-02-21T10:24:31;98018.38;;;8.52;79.43
58875;BME280;44652;49.040;12.126;2024-02-21T10:27:01;98004.00;;;8.44;78.08
58875;BME280;44652;49.040;12.126;2024-02-21T10:29:30;98026.84;;;8.68;78.51
58875;BME280;44652;49.040;12.126;2024-02-21T10:32:08;98013.00;;;8.72;77.89
58875;BME280;44652;49.040;12.126;2024-02-21T10:34:36;98019.69;;;8.86;77.59
58875;BME280;44652;49.040;12.126;2024-02-21T10:37:05;98005.84;;;8.90;77.42
58875;BME280;44652;49.040;12.126;2024-02-21T10:39:33;98022.44;;;9.12;74.77
58875;BME280;44652;49.040;12.126;2024-02-21T10:42:01;98012.28;;;9.21;74.95
58875;BME280;44652;49.040;12.126;2024-02-21T10:44:34;97993.06;;;9.23;75.49
58875;BME280;44652;49.040;12.126;2024-02-21T10:47:07;97988.13;;;9.55;73.76
58875;BME280;44652;49.040;12.126;2024-02-21T10:49:38;97982.59;;;9.73;71.76
58875;BME280;44652;49.040;12.126;2024-02-21T10:57:10;97962.81;;;9.84;69.95
58875;BME280;44652;49.040;12.126;2024-02-21T10:59:39;97967.19;;;9.84;70.67
58875;BME280;44652;49.040;12.126;2024-02-21T11:02:06;97944.75;;;9.69;70.83
58875;BME280;44652;49.040;12.126;2024-02-21T11:04:34;97949.09;;;9.93;72.28
58875;BME280;44652;49.040;12.126;2024-02-21T11:07:06;97952.38;;;10.38;70.06
58875;BME280;44652;49.040;12.126;2024-02-21T11:09:37;97949.59;;;10.61;69.02
58875;BME280;44652;49.040;12.126;2024-02-21T11:12:05;97934.22;;;10.47;68.66
58875;BME280;44652;49.040;12.126;2024-02-21T11:14:33;97918.44;;;10.76;66.70
58875;BME280;44652;49.040;12.126;2024-02-21T11:17:15;97912.69;;;10.61;65.84
58875;BME280;44652;49.040;12.126;2024-02-21T11:19:43;97921.81;;;10.72;66.37
58875;BME280;44652;49.040;12.126;2024-02-21T11:22:16;97926.88;;;10.66;67.41
58875;BME280;44652;49.040;12.126;2024-02-21T11:24:43;97912.16;;;10.73;67.17
58875;BME280;44652;49.040;12.126;2024-02-21T11:29:44;97893.03;;;10.51;68.71
58875;BME280;44652;49.040;12.126;2024-02-21T11:32:14;97871.53;;;10.66;67.85
58875;BME280;44652;49.040;12.126;2024-02-21T11:34:52;97880.66;;;10.77;68.18
58875;BME280;44652;49.040;12.126;2024-02-21T11:37:19;97884.88;;;11.02;66.38
58875;BME280;44652;49.040;12.126;2024-02-21T11:39:46;97869.34;;;11.11;65.25
58875;BME280;44652;49.040;12.126;2024-02-21T11:42:13;97859.69;;;11.12;65.24
58875;BME280;44652;49.040;12.126;2024-02-21T11:44:40;97858.59;;;11.70;63.19
58875;BME280;44652;49.040;12.126;2024-02-21T11:47:09;97861.09;;;11.32;62.12
58875;BME280;44652;49.040;12.126;2024-02-21T11:49:46;97844.09;;;11.54;61.77
58875;BME280;44652;49.040;12.126;2024-02-21T11:52:13;97853.19;;;11.99;60.46
58875;BME280;44652;49.040;12.126;2024-02-21T11:54:42;97843.59;;;12.02;59.90
58875;BME280;44652;49.040;12.126;2024-02-21T11:57:10;97841.47;;;12.24;58.02
58875;BME280;44652;49.040;12.126;2024-02-21T11:59:39;97833.03;;;12.40;56.58
58875;BME280;44652;49.040;12.126;2024-02-21T12:02:06;97834.63;;;12.33;56.20
58875;BME280;44652;49.040;12.126;2024-02-21T12:04:34;97838.84;;;12.24;55.98
58875;BME280;44652;49.040;12.126;2024-02-21T12:07:01;97832.25;;;12.08;55.90
58875;BME280;44652;49.040;12.126;2024-02-21T12:09:30;97807.94;;;12.23;55.07
58875;BME280;44652;49.040;12.126;2024-02-21T12:12:04;97814.09;;;12.20;53.37
58875;BME280;44652;49.040;12.126;2024-02-21T12:14:35;97832.88;;;12.73;52.44
58875;BME280;44652;49.040;12.126;2024-02-21T12:17:02;97783.16;;;12.57;51.61
58875;BME280;44652;49.040;12.126;2024-02-21T12:19:33;97793.53;;;12.88;54.61
58875;BME280;44652;49.040;12.126;2024-02-21T12:22:01;97814.59;;;12.85;53.98
58875;BME280;44652;49.040;12.126;2024-02-21T12:24:28;97793.00;;;12.23;54.41
58875;BME280;44652;49.040;12.126;2024-02-21T12:26:56;97790.75;;;12.41;53.87
58875;BME280;44652;49.040;12.126;2024-02-21T12:29:25;97791.22;;;12.63;52.57
58875;BME280;44652;49.040;12.126;2024-02-21T12:31:52;97810.91;;;12.77;51.80
58875;BME280;44652;49.040;12.126;2024-02-21T12:34:20;97805.41;;;12.66;52.23
58875;BME280;44652;49.040;12.126;2024-02-21T12:37:04;97787.94;;;12.34;50.76
58875;BME280;44652;49.040;12.126;2024-02-21T12:39:30;97776.63;;;12.39;50.72
58875;BME280;44652;49.040;12.126;2024-02-21T12:41:58;97781.78;;;11.94;52.53
58875;BME280;44652;49.040;12.126;2024-02-21T12:44:25;97786.34;;;12.01;53.79
58875;BME280;44652;49.040;12.126;2024-02-21T12:46:52;97758.97;;;11.63;53.91
58875;BME280;44652;49.040;12.126;2024-02-21T12:49:22;97769.66;;;12.04;53.16
58875;BME280;44652;49.040;12.126;2024-02-21T12:51:49;97747.50;;;11.97;53.11
58875;BME280;44652;49.040;12.126;2024-02-21T12:54:15;97757.91;;;12.73;52.48
58875;BME280;44652;49.040;12.126;2024-02-21T12:56:42;97750.53;;;12.56;55.23
58875;BME280;44652;49.040;12.126;2024-02-21T12:59:09;97739.50;;;12.33;54.20
58875;BME280;44652;49.040;12.126;2024-02-21T13:01:36;97747.34;;;12.30;53.90
58875;BME280;44652;49.040;12.126;2024-02-21T13:04:05;97730.19;;;12.52;53.11
58875;BME280;44652;49.040;12.126;2024-02-21T13:06:38;97722.75;;;12.34;53.94
58875;BME280;44652;49.040;12.126;2024-02-21T13:09:13;97715.16;;;12.50;52.64
58875;BME280;44652;49.040;12.126;2024-02-21T13:11:40;97720.69;;;13.07;51.05
58875;BME280;44652;49.040;12.126;2024-02-21T13:14:08;97713.81;;;13.19;51.04
58875;BME280;44652;49.040;12.126;2024-02-21T13:16:35;97709.84;;;12.94;50.49
58875;BME280;44652;49.040;12.126;2024-02-21T13:19:08;97693.53;;;12.27;52.55
58875;BME280;44652;49.040;12.126;2024-02-21T13:21:36;97707.81;;;12.80;51.83
58875;BME280;44652;49.040;12.126;2024-02-21T13:24:03;97699.69;;;12.27;53.45
58875;BME280;44652;49.040;12.126;2024-02-21T13:26:30;97682.88;;;12.22;53.44
58875;BME280;44652;49.040;12.126;2024-02-21T13:28:57;97686.63;;;12.79;52.52
58875;BME280;44652;49.040;12.126;2024-02-21T13:31:24;97679.03;;;12.96;52.42
58875;BME280;44652;49.040;12.126;2024-02-21T13:33:52;97685.53;;;13.16;51.85
58875;BME280;44652;49.040;12.126;2024-02-21T13:36:19;97657.78;;;13.43;50.47
58875;BME280;44652;49.040;12.126;2024-02-21T13:38:46;97668.34;;;13.41;51.24
58875;BME280;44652;49.040;12.126;2024-02-21T13:41:13;97649.84;;;13.43;51.13
58875;BME280;44652;49.040;12.126;2024-02-21T13:43:40;97637.09;;;13.76;49.96
58875;BME280;44652;49.040;12.126;2024-02-21T13:46:07;97635.38;;;13.81;50.15
58875;BME280;44652;49.040;12.126;2024-02-21T13:48:36;97640.94;;;14.00;48.31
58875;BME280;44652;49.040;12.126;2024-02-21T13:51:04;97632.06;;;13.95;48.79
58875;BME280;44652;49.040;12.126;2024-02-21T13:53:33;97634.97;;;14.16;48.37
58875;BME280;44652;49.040;12.126;2024-02-21T13:56:01;97613.22;;;14.46;48.14
58875;BME280;44652;49.040;12.126;2024-02-21T13:58:28;97626.38;;;14.39;47.49
58875;BME280;44652;49.040;12.126;2024-02-21T14:00:55;97619.72;;;13.98;47.28
58875;BME280;44652;49.040;12.126;2024-02-21T14:03:23;97624.94;;;13.92;48.40
58875;BME280;44652;49.040;12.126;2024-02-21T14:05:49;97619.50;;;13.80;48.32
58875;BME280;44652;49.040;12.126;2024-02-21T14:08:17;97602.81;;;13.90;48.51
58875;BME280;44652;49.040;12.126;2024-02-21T14:10:43;97615.19;;;13.90;48.61
58875;BME280;44652;49.040;12.126;2024-02-21T14:13:10;97598.72;;;13.48;49.90
58875;BME280;44652;49.040;12.126;2024-02-21T14:15:39;97614.88;;;13.65;49.97
58875;BME280;44652;49.040;12.126;2024-02-21T14:18:07;97593.63;;;13.06;51.96
58875;BME280;44652;49.040;12.126;2024-02-21T14:20:36;97590.88;;;13.54;51.25
58875;BME280;44652;49.040;12.126;2024-02-21T14:23:03;97582.31;;;13.72;50.47
58875;BME280;44652;49.040;12.126;2024-02-21T14:25:31;97601.97;;;13.29;50.93
58875;BME280;44652;49.040;12.126;2024-02-21T14:28:00;97576.59;;;13.43;51.26
58875;BME280;44652;49.040;12.126;2024-02-21T14:30:27;97585.09;;;13.22;50.98
58875;BME280;44652;49.040;12.126;2024-02-21T14:32:54;97580.16;;;13.45;51.19
58875;BME280;44652;49.040;12.126;2024-02-21T14:35:21;97579.56;;;13.08;51.64
58875;BME280;44652;49.040;12.126;2024-02-21T14:37:48;97563.88;;;13.21;51.68
58875;BME280;44652;49.040;12.126;2024-02-21T14:40:15;97582.06;;;12.99;52.76
58875;BME280;44652;49.040;12.126;2024-02-21T14:42:42;97582.66;;;12.81;52.96
58875;BME280;44652;49.040;12.126;2024-02-21T14:45:09;97562.06;;;13.18;52.32
58875;BME280;44652;49.040;12.126;2024-02-21T14:47:39;97569.09;;;13.16;52.45
58875;BME280;44652;49.040;12.126;2024-02-21T14:50:09;97553.44;;;12.74;52.75
58875;BME280;44652;49.040;12.126;2024-02-21T14:52:36;97560.13;;;12.53;53.56
58875;BME280;44652;49.040;12.126;2024-02-21T14:55:04;97569.25;;;12.71;53.15
58875;BME280;44652;49.040;12.126;2024-02-21T14:57:31;97580.72;;;12.73;53.37
58875;BME280;44652;49.040;12.126;2024-02-21T14:59:58;97578.47;;;12.44;54.29
58875;BME280;44652;49.040;12.126;2024-02-21T15:02:26;97560.88;;;12.45;54.74
58875;BME280;44652;49.040;12.126;2024-02-21T15:04:55;97561.06;;;12.08;56.03
58875;BME280;44652;49.040;12.126;2024-02-21T15:07:24;97566.63;;;12.22;56.18
58875;BME280;44652;49.040;12.126;2024-02-21T15:09:52;97547.97;;;12.13;55.30
58875;BME280;44652;49.040;12.126;2024-02-21T15:12:19;97560.66;;;12.34;56.13
58875;BME280;44652;49.040;12.126;2024-02-21T15:14:46;97542.69;;;12.13;56.15
58875;BME280;44652;49.040;12.126;2024-02-21T15:17:12;97558.28;;;12.49;54.73
58875;BME280;44652;49.040;12.126;2024-02-21T15:19:39;97555.22;;;12.25;55.06
58875;BME280;44652;49.040;12.126;2024-02-21T15:22:10;97530.81;;;11.92;55.50
58875;BME280;44652;49.040;12.126;2024-02-21T15:24:40;97532.28;;;11.78;55.38
58875;BME280;44652;49.040;12.126;2024-02-21T15:27:07;97540.06;;;11.72;55.36
58875;BME280;44652;49.040;12.126;2024-02-21T15:29:35;97516.63;;;11.45;56.01
58875;BME280;44652;49.040;12.126;2024-02-21T15:32:05;97521.28;;;11.16;57.14
58875;BME280;44652;49.040;12.126;2024-02-21T15:34:32;97526.53;;;11.14;57.01
58875;BME280;44652;49.040;12.126;2024-02-21T15:37:00;97525.69;;;11.17;57.46
58875;BME280;44652;49.040;12.126;2024-02-21T15:39:27;97520.03;;;11.00;58.78
58875;BME280;44652;49.040;12.126;2024-02-21T15:41:57;97502.91;;;10.81;58.95
58875;BME280;44652;49.040;12.126;2024-02-21T15:44:24;97514.34;;;10.83;60.40
58875;BME280;44652;49.040;12.126;2024-02-21T15:46:51;97502.03;;;10.81;59.82
58875;BME280;44652;49.040;12.126;2024-02-21T15:49:20;97491.13;;;10.65;59.51
58875;BME280;44652;49.040;12.126;2024-02-21T15:51:47;97506.16;;;10.71;59.40
58875;BME280;44652;49.040;12.126;2024-02-21T15:54:14;97496.09;;;10.53;59.09
58875;BME280;44652;49.040;12.126;2024-02-21T15:56:49;97485.56;;;10.53;59.60
58875;BME280;44652;49.040;12.126;2024-02-21T15:59:16;97499.63;;;10.54;59.91
58875;BME280;44652;49.040;12.126;2024-02-21T16:01:43;97496.09;;;10.53;59.58
58875;BME280;44652;49.040;12.126;2024-02-21T16:04:10;97502.19;;;10.52;59.82
58875;BME280;44652;49.040;12.126;2024-02-21T16:06:37;97493.03;;;10.36;60.79
58875;BME280;44652;49.040;12.126;2024-02-21T16:09:04;97477.50;;;10.14;61.23
58875;BME280;44652;49.040;12.126;2024-02-21T16:11:35;97488.97;;;10.16;61.80
58875;BME280;44652;49.040;12.126;2024-02-21T16:14:02;97468.41;;;10.01;61.96
58875;BME280;44652;49.040;12.126;2024-02-21T16:16:30;97482.56;;;10.06;62.39
58875;BME280;44652;49.040;12.126;2024-02-21T16:18:57;97462.00;;;9.91;61.94
58875;BME280;44652;49.040;12.126;2024-02-21T16:21:24;97473.56;;;9.96;62.60
58875;BME280;44652;49.040;12.126;2024-02-21T16:23:51;97472.59;;;9.93;62.82
58875;BME280;44652;49.040;12.126;2024-02-21T16:26:18;97460.78;;;9.79;63.50
58875;BME280;44652;49.040;12.126;2024-02-21T16:28:44;97444.91;;;9.75;63.34
58875;BME280;44652;49.040;12.126;2024-02-21T16:31:11;97459.13;;;9.82;63.48
58875;BME280;44652;49.040;12.126;2024-02-21T16:33:38;97448.53;;;9.79;64.01
58875;BME280;44652;49.040;12.126;2024-02-21T16:36:05;97443.84;;;9.69;65.01
58875;BME280;44652;49.040;12.126;2024-02-21T16:38:35;97458.75;;;9.68;65.70
58875;BME280;44652;49.040;12.126;2024-02-21T16:41:04;97448.81;;;9.58;65.84
58875;BME280;44652;49.040;12.126;2024-02-21T16:43:31;97448.97;;;9.63;65.59
58875;BME280;44652;49.040;12.126;2024-02-21T16:45:57;97436.31;;;9.49;66.20
58875;BME280;44652;49.040;12.126;2024-02-21T16:48:24;97452.97;;;9.50;66.93
58875;BME280;44652;49.040;12.126;2024-02-21T16:50:51;97429.06;;;9.41;68.29
58875;BME280;44652;49.040;12.126;2024-02-21T16:53:26;97431.50;;;9.33;67.51
58875;BME280;44652;49.040;12.126;2024-02-21T16:55:53;97451.94;;;9.43;67.46
58875;BME280;44652;49.040;12.126;2024-02-21T16:58:19;97442.09;;;9.36;68.04
58875;BME280;44652;49.040;12.126;2024-02-21T17:00:46;97423.97;;;9.15;69.02
58875;BME280;44652;49.040;12.126;2024-02-21T17:03:14;97416.81;;;9.10;69.54
58875;BME280;44652;49.040;12.126;2024-02-21T17:05:47;97404.44;;;9.07;69.83
58875;BME280;44652;49.040;12.126;2024-02-21T17:08:23;97411.44;;;9.07;70.12
58875;BME280;44652;49.040;12.126;2024-02-21T17:10:51;97409.50;;;8.99;70.45
58875;BME280;44652;49.040;12.126;2024-02-21T17:13:18;97431.59;;;9.06;70.90
58875;BME280;44652;49.040;12.126;2024-02-21T17:15:46;97413.56;;;8.90;71.47
58875;BME280;44652;49.040;12.126;2024-02-21T17:18:14;97402.03;;;8.83;72.58
58875;BME280;44652;49.040;12.126;2024-02-21T17:20:41;97399.31;;;8.82;73.59
58875;BME280;44652;49.040;12.126;2024-02-21T17:23:08;97413.41;;;8.84;73.55
58875;BME280;44652;49.040;12.126;2024-02-21T17:25:34;97415.91;;;8.79;73.29
58875;BME280;44652;49.040;12.126;2024-02-21T17:28:01;97418.59;;;8.82;73.62
58875;BME280;44652;49.040;12.126;2024-02-21T17:30:28;97406.06;;;8.72;73.38
58875;BME280;44652;49.040;12.126;2024-02-21T17:32:55;97395.22;;;8.61;73.59
58875;BME280;44652;49.040;12.126;2024-02-21T17:35:22;97404.34;;;8.74;73.93
58875;BME280;44652;49.040;12.126;2024-02-21T17:37:49;97398.63;;;8.59;74.40
58875;BME280;44652;49.040;12.126;2024-02-21T17:40:16;97393.28;;;8.56;74.43
58875;BME280;44652;49.040;12.126;2024-02-21T17:42:43;97402.63;;;8.46;74.68
58875;BME280;44652;49.040;12.126;2024-02-21T17:45:09;97394.38;;;8.35;75.09
58875;BME280;44652;49.040;12.126;2024-02-21T17:47:36;97398.97;;;8.41;75.32
58875;BME280;44652;49.040;12.126;2024-02-21T17:50:04;97377.63;;;8.30;75.02
58875;BME280;44652;49.040;12.126;2024-02-21T17:52:31;97379.19;;;8.25;75.42
58875;BME280;44652;49.040;12.126;2024-02-21T17:54:59;97379.25;;;8.26;75.49
58875;BME280;44652;49.040;12.126;2024-02-21T17:57:26;97353.66;;;8.19;76.03
58875;BME280;44652;49.040;12.126;2024-02-21T17:59:52;97356.72;;;8.06;76.48
58875;BME280;44652;49.040;12.126;2024-02-21T18:02:20;97353.06;;;8.01;78.14
58875;BME280;44652;49.040;12.126;2024-02-21T18:04:50;97365.56;;;8.10;78.58
58875;BME280;44652;49.040;12.126;2024-02-21T18:07:18;97342.31;;;7.93;79.81
58875;BME280;44652;49.040;12.126;2024-02-21T18:09:48;97347.22;;;7.83;82.52
58875;BME280;44652;49.040;12.126;2024-02-21T18:12:17;97332.00;;;7.72;83.57
58875;BME280;44652;49.040;12.126;2024-02-21T18:14:44;97349.97;;;7.87;84.83
58875;BME280;44652;49.040;12.126;2024-02-21T18:17:11;97341.72;;;7.75;86.72
58875;BME280;44652;49.040;12.126;2024-02-21T18:19:38;97326.47;;;7.63;87.51
58875;BME280;44652;49.040;12.126;2024-02-21T18:22:05;97322.34;;;7.70;87.94
58875;BME280;44652;49.040;12.126;2024-02-21T18:24:31;97304.28;;;7.53;88.58
58875;BME280;44652;49.040;12.126;2024-02-21T18:26:58;97314.78;;;7.53;89.41
58875;BME280;44652;49.040;12.126;2024-02-21T18:29:25;97313.16;;;7.57;89.18
58875;BME280;44652;49.040;12.126;2024-02-21T18:32:05;97304.25;;;7.52;88.82
58875;BME280;44652;49.040;12.126;2024-02-21T18:34:35;97314.22;;;7.62;89.41
58875;BME280;44652;49.040;12.126;2024-02-21T18:37:02;97303.16;;;7.45;89.93
58875;BME280;44652;49.040;12.126;2024-02-21T18:39:30;97325.47;;;7.60;89.44
58875;BME280;44652;49.040;12.126;2024-02-21T18:41:58;97321.41;;;7.42;90.41
58875;BME280;44652;49.040;12.126;2024-02-21T18:44:24;97291.97;;;7.24;90.56
58875;BME280;44652;49.040;12.126;2024-02-21T18:46:51;97320.25;;;7.34;90.92
58875;BME280;44652;49.040;12.126;2024-02-21T18:49:18;97293.00;;;7.29;91.14
58875;BME280;44652;49.040;12.126;2024-02-21T18:51:45;97304.53;;;7.34;91.53
58875;BME280;44652;49.040;12.126;2024-02-21T18:54:13;97295.19;;;7.42;90.57
58875;BME280;44652;49.040;12.126;2024-02-21T18:56:44;97285.88;;;7.25;90.82
58875;BME280;44652;49.040;12.126;2024-02-21T18:59:11;97275.25;;;7.20;91.04
58875;BME280;44652;49.040;12.126;2024-02-21T19:01:38;97290.53;;;7.34;90.76
58875;BME280;44652;49.040;12.126;2024-02-21T19:04:05;97279.94;;;7.30;90.55
58875;BME280;44652;49.040;12.126;2024-02-21T19:06:31;97254.28;;;7.20;90.84
58875;BME280;44652;49.040;12.126;2024-02-21T19:08:58;97265.94;;;7.30;90.62
58875;BME280;44652;49.040;12.126;2024-02-21T19:11:25;97267.63;;;7.28;90.55